createdAt,value
2018-11-20T00:01:21.422Z,2.96
2018-11-20T00:04:24.032Z,3.01
2018-11-20T00:07:17.115Z,3.00
2018-11-20T00:10:04.070Z,2.96
2018-11-20T00:12:54.194Z,2.95
2018-11-20T00:15:47.488Z,2.94
2018-11-20T00:18:34.846Z,2.85
2018-11-20T00:21:08.339Z,2.79
2018-11-20T00:24:01.540Z,2.84
2018-11-20T00:26:52.039Z,2.83
2018-11-20T00:29:46.245Z,2.83
2018-11-20T00:32:33.779Z,2.84
2018-11-20T00:35:20.406Z,2.78
2018-11-20T00:38:07.996Z,2.82
2018-11-20T00:41:04.234Z,2.85
2018-11-20T00:43:49.634Z,2.89
2018-11-20T00:46:36.708Z,2.87
2018-11-20T00:49:22.556Z,2.95
2018-11-20T00:52:09.818Z,3.01
2018-11-20T00:55:00.102Z,2.96
2018-11-20T00:57:56.282Z,2.91
2018-11-20T01:00:43.844Z,2.96
2018-11-20T01:03:43.412Z,2.92
2018-11-20T01:06:33.538Z,2.94
2018-11-20T01:09:26.542Z,2.85
2018-11-20T01:12:02.294Z,2.74
2018-11-20T01:14:48.689Z,2.79
2018-11-20T01:17:34.429Z,2.75
2018-11-20T01:20:12.917Z,2.76
2018-11-20T01:22:58.534Z,2.82
2018-11-20T01:25:51.922Z,2.80
2018-11-20T01:28:42.515Z,2.69
2018-11-20T01:31:32.353Z,2.69
2018-11-20T01:34:19.613Z,2.63
2018-11-20T01:37:06.978Z,2.67
2018-11-20T01:39:57.590Z,2.71
2018-11-20T01:42:47.888Z,2.68
2018-11-20T01:45:38.404Z,2.74
2018-11-20T01:48:24.656Z,2.66
2018-11-20T01:51:12.186Z,2.60
2018-11-20T01:53:54.738Z,2.65
2018-11-20T01:56:38.684Z,2.64
2018-11-20T01:59:24.883Z,2.65
2018-11-20T02:02:11.023Z,2.65
2018-11-20T02:05:01.338Z,2.63
2018-11-20T02:07:50.529Z,2.63
2018-11-20T02:10:36.699Z,2.60
2018-11-20T02:14:10.385Z,2.51
2018-11-20T02:17:08.105Z,2.49
2018-11-20T02:19:58.338Z,2.42
2018-11-20T02:22:44.691Z,2.43
2018-11-20T02:25:33.817Z,2.50
2018-11-20T02:28:21.435Z,2.49
2018-11-20T02:31:09.872Z,2.47
2018-11-20T02:33:56.940Z,2.50
2018-11-20T02:36:52.626Z,2.27
2018-11-20T02:39:42.513Z,2.43
2018-11-20T02:42:29.753Z,2.40
2018-11-20T02:45:16.999Z,2.49
2018-11-20T02:48:02.661Z,2.49
2018-11-20T02:51:02.284Z,2.50
2018-11-20T02:53:48.889Z,2.50
2018-11-20T02:56:45.558Z,2.62
2018-11-20T02:59:32.024Z,2.65
2018-11-20T03:02:19.338Z,2.62
2018-11-20T03:05:05.525Z,2.70
2018-11-20T03:08:08.125Z,2.70
2018-11-20T03:10:54.446Z,2.53
2018-11-20T03:13:57.106Z,2.61
2018-11-20T03:16:47.492Z,2.60
2018-11-20T03:19:36.846Z,2.63
2018-11-20T03:22:24.134Z,2.69
2018-11-20T03:25:23.473Z,2.71
2018-11-20T03:28:27.196Z,2.56
2018-11-20T03:31:28.939Z,2.53
2018-11-20T03:34:16.182Z,2.63
2018-11-20T03:37:05.273Z,2.53
2018-11-20T03:39:56.718Z,2.60
2018-11-20T03:42:43.496Z,2.60
2018-11-20T03:45:45.965Z,2.41
2018-11-20T03:48:31.923Z,2.41
2018-11-20T03:51:16.016Z,2.38
2018-11-20T03:54:06.499Z,2.37
2018-11-20T03:56:54.159Z,2.45
2018-11-20T03:59:41.984Z,2.46
2018-11-20T04:02:26.052Z,2.46
2018-11-20T04:05:16.290Z,2.48
2018-11-20T04:08:21.986Z,2.43
2018-11-20T04:11:17.372Z,2.44
2018-11-20T04:14:05.006Z,2.25
2018-11-20T04:16:51.204Z,2.37
2018-11-20T04:19:44.610Z,2.38
2018-11-20T04:22:50.818Z,2.29
2018-11-20T04:25:42.833Z,2.28
2018-11-20T04:28:29.157Z,2.35
2018-11-20T04:31:55.343Z,2.28
2018-11-20T04:35:01.252Z,2.21
2018-11-20T04:37:36.561Z,2.34
2018-11-20T04:40:36.313Z,2.40
2018-11-20T04:43:38.863Z,2.42
2018-11-20T04:46:33.843Z,2.36
2018-11-20T04:49:25.777Z,2.43
2018-11-20T04:52:25.750Z,2.43
2018-11-20T04:55:20.670Z,2.50
2018-11-20T04:58:06.999Z,2.49
2018-11-20T05:00:59.592Z,2.49
2018-11-20T05:03:59.483Z,2.38
2018-11-20T05:07:02.203Z,2.32
2018-11-20T05:09:48.312Z,2.36
2018-11-20T05:12:44.570Z,2.30
2018-11-20T05:15:25.218Z,2.19
2018-11-20T05:18:31.067Z,2.20
2018-11-20T05:21:18.380Z,2.17
2018-11-20T05:23:58.501Z,2.16
2018-11-20T05:26:45.727Z,2.07
2018-11-20T05:29:33.265Z,2.02
2018-11-20T05:32:19.218Z,2.02
2018-11-20T05:35:24.850Z,2.15
2018-11-20T05:38:02.690Z,2.01
2018-11-20T05:40:59.263Z,1.91
2018-11-20T05:43:45.069Z,1.74
2018-11-20T05:46:32.750Z,1.82
2018-11-20T05:49:25.799Z,1.82
2018-11-20T05:52:12.968Z,1.95
2018-11-20T05:55:00.474Z,2.04
2018-11-20T05:57:51.368Z,2.10
2018-11-20T06:00:50.751Z,2.10
2018-11-20T06:03:45.825Z,2.09
2018-11-20T06:06:43.572Z,2.09
2018-11-20T06:09:35.090Z,2.19
2018-11-20T06:12:15.379Z,2.17
2018-11-20T06:15:12.858Z,2.21
2018-11-20T06:18:00.352Z,2.31
2018-11-20T06:20:53.024Z,2.41
2018-11-20T06:23:27.615Z,2.36
2018-11-20T06:26:32.865Z,2.18
2018-11-20T06:29:12.869Z,2.08
2018-11-20T06:31:52.377Z,2.18
2018-11-20T06:34:45.839Z,2.34
2018-11-20T06:37:33.359Z,2.17
2018-11-20T06:40:39.066Z,1.97
2018-11-20T06:43:29.124Z,1.99
2018-11-20T06:46:10.560Z,2.09
2018-11-20T06:48:56.415Z,2.10
2018-11-20T06:51:40.732Z,2.10
2018-11-20T06:54:27.813Z,2.10
2018-11-20T06:57:21.256Z,2.02
2018-11-20T07:00:12.185Z,2.01
2018-11-20T07:02:57.872Z,2.18
2018-11-20T07:05:38.724Z,2.18
2018-11-20T07:08:30.845Z,2.29
2018-11-20T07:11:20.638Z,2.46
2018-11-20T07:14:21.606Z,2.50
2018-11-20T07:17:12.088Z,2.53
2018-11-20T07:20:08.691Z,2.46
2018-11-20T07:22:59.258Z,2.53
2018-11-20T07:25:45.450Z,2.58
2018-11-20T07:28:50.165Z,2.62
2018-11-20T07:31:43.694Z,2.73
2018-11-20T07:34:33.684Z,2.69
2018-11-20T07:37:16.196Z,2.74
2018-11-20T07:40:18.689Z,2.80
2018-11-20T07:43:04.958Z,2.88
2018-11-20T07:45:51.095Z,2.85
2018-11-20T07:48:50.873Z,2.87
2018-11-20T07:51:53.779Z,2.93
2018-11-20T07:54:56.206Z,2.95
2018-11-20T07:57:43.393Z,2.99
2018-11-20T08:00:20.796Z,2.97
2018-11-20T08:03:09.487Z,2.90
2018-11-20T08:05:59.665Z,2.86
2018-11-20T08:08:56.689Z,2.87
2018-11-20T08:11:31.290Z,2.91
2018-11-20T08:14:06.516Z,2.96
2018-11-20T08:16:43.500Z,2.97
2018-11-20T08:19:51.688Z,2.97
2018-11-20T08:22:34.409Z,2.95
2018-11-20T08:25:24.217Z,3.08
2018-11-20T08:28:10.180Z,2.98
2018-11-20T08:30:56.981Z,3.08
2018-11-20T08:33:53.957Z,3.13
2018-11-20T08:36:38.136Z,3.24
2018-11-20T08:39:25.882Z,3.18
2018-11-20T08:42:15.826Z,3.32
2018-11-20T08:45:01.602Z,3.38
2018-11-20T08:47:58.121Z,3.41
2018-11-20T08:50:44.262Z,3.50
2018-11-20T08:53:32.504Z,3.52
2018-11-20T08:56:31.841Z,3.58
2018-11-20T08:59:28.143Z,3.60
2018-11-20T09:02:14.160Z,3.64
2018-11-20T09:04:52.060Z,3.59
2018-11-20T09:07:34.130Z,3.67
2018-11-20T09:10:20.622Z,3.54
2018-11-20T09:13:07.133Z,3.45
2018-11-20T09:15:53.333Z,3.46
2018-11-20T09:18:49.623Z,3.49
2018-11-20T09:21:49.238Z,3.49
2018-11-20T09:24:36.477Z,3.53
2018-11-20T09:27:37.003Z,3.54
2018-11-20T09:30:37.157Z,3.66
2018-11-20T09:33:28.174Z,3.72
2018-11-20T09:36:30.788Z,3.62
2018-11-20T09:39:32.843Z,3.69
2018-11-20T09:42:16.669Z,3.75
2018-11-20T09:45:43.068Z,3.87
2018-11-20T09:48:36.485Z,3.78
2018-11-20T09:51:22.724Z,3.96
2018-11-20T09:54:09.981Z,4.03
2018-11-20T09:56:55.814Z,3.98
2018-11-20T09:59:52.310Z,4.06
2018-11-20T10:02:39.472Z,4.17
2018-11-20T10:05:31.504Z,4.30
2018-11-20T10:08:21.805Z,4.42
2018-11-20T10:11:21.147Z,4.52
2018-11-20T10:14:17.304Z,4.47
2018-11-20T10:17:04.205Z,4.32
2018-11-20T10:19:44.800Z,4.38
2018-11-20T10:22:41.202Z,4.37
2018-11-20T10:25:40.619Z,4.47
2018-11-20T10:28:26.478Z,4.47
2018-11-20T10:31:13.980Z,4.50
2018-11-20T10:34:07.963Z,4.50
2018-11-20T10:37:04.185Z,4.56
2018-11-20T10:39:51.364Z,4.53
2018-11-20T10:42:37.824Z,4.52
2018-11-20T10:45:24.457Z,4.58
2018-11-20T10:48:15.275Z,4.60
2018-11-20T10:51:04.277Z,4.53
2018-11-20T10:54:02.481Z,4.67
2018-11-20T10:57:08.188Z,4.22
2018-11-20T11:00:01.444Z,4.39
2018-11-20T11:02:47.275Z,4.59
2018-11-20T11:05:51.699Z,4.56
2018-11-20T11:08:38.762Z,4.56
2018-11-20T11:11:20.697Z,4.47
2018-11-20T11:14:14.374Z,4.16
2018-11-20T11:16:55.918Z,4.14
2018-11-20T11:19:43.537Z,4.33
2018-11-20T11:22:36.896Z,4.34
2018-11-20T11:25:25.983Z,4.43
2018-11-20T11:28:13.177Z,4.51
2018-11-20T11:30:58.777Z,4.66
2018-11-20T11:33:49.286Z,4.74
2018-11-20T11:36:51.557Z,4.76
2018-11-20T11:39:41.583Z,4.88
2018-11-20T11:42:36.077Z,4.89
2018-11-20T11:45:26.783Z,4.82
2018-11-20T11:48:26.612Z,4.93
2018-11-20T11:51:11.844Z,4.94
2018-11-20T11:53:58.762Z,4.90
2018-11-20T11:56:54.569Z,4.80
2018-11-20T11:59:41.320Z,4.89
2018-11-20T12:05:27.355Z,4.94
2018-11-20T12:08:22.726Z,4.90
2018-11-20T12:11:10.180Z,4.59
2018-11-20T12:13:56.029Z,4.83
2018-11-20T12:16:45.648Z,4.95
2018-11-20T12:19:31.333Z,5.08
2018-11-20T12:22:16.972Z,5.22
2018-11-20T12:25:04.408Z,5.26
2018-11-20T12:28:04.029Z,5.32
2018-11-20T12:30:51.710Z,5.33
2018-11-20T12:33:53.640Z,5.49
2018-11-20T12:36:48.833Z,5.56
2018-11-20T12:39:38.399Z,5.62
2018-11-20T12:42:32.432Z,5.52
2018-11-20T12:45:19.689Z,5.54
2018-11-20T12:48:12.166Z,5.57
2018-11-20T12:51:11.244Z,5.52
2018-11-20T12:54:07.884Z,5.64
2018-11-20T12:56:48.074Z,5.61
2018-11-20T12:59:26.707Z,5.63
2018-11-20T13:02:16.954Z,5.64
2018-11-20T13:05:07.087Z,5.68
2018-11-20T13:07:57.566Z,5.67
2018-11-20T13:11:01.564Z,5.65
2018-11-20T13:13:50.233Z,5.77
2018-11-20T13:16:39.182Z,5.68
2018-11-20T13:19:40.874Z,5.61
2018-11-20T13:22:41.292Z,5.74
2018-11-20T13:25:37.502Z,5.85
2018-11-20T13:28:36.743Z,5.93
2018-11-20T13:31:35.927Z,5.97
2018-11-20T13:34:25.119Z,5.85
2018-11-20T13:37:27.284Z,5.50
2018-11-20T13:40:24.122Z,5.20
2018-11-20T13:43:17.146Z,4.82
2018-11-20T13:46:13.223Z,5.03
2018-11-20T13:48:59.349Z,5.30
2018-11-20T13:51:51.827Z,5.42
2018-11-20T13:54:49.795Z,5.54
2018-11-20T13:57:35.990Z,5.11
2018-11-20T14:00:35.234Z,5.03
2018-11-20T14:03:22.801Z,5.00
2018-11-20T14:06:08.989Z,4.95
2018-11-20T14:09:13.814Z,5.06
2018-11-20T14:12:04.584Z,5.02
2018-11-20T14:14:54.911Z,5.21
2018-11-20T14:17:50.347Z,5.39
2018-11-20T14:20:46.214Z,5.52
2018-11-20T14:23:33.700Z,5.47
2018-11-20T14:26:19.892Z,5.54
2018-11-20T14:29:06.314Z,5.60
2018-11-20T14:31:58.372Z,5.67
2018-11-20T14:34:45.541Z,5.73
2018-11-20T14:37:24.826Z,5.79
2018-11-20T14:40:11.998Z,5.78
2018-11-20T14:43:08.381Z,5.79
2018-11-20T14:45:56.873Z,5.82
2018-11-20T14:48:49.301Z,5.80
2018-11-20T14:51:26.574Z,5.78
2018-11-20T14:54:12.752Z,5.76
2018-11-20T14:56:58.879Z,5.74
2018-11-20T14:59:53.223Z,5.70
2018-11-20T15:02:50.028Z,5.66
2018-11-20T15:05:46.577Z,5.55
2018-11-20T15:08:32.224Z,5.38
2018-11-20T15:11:19.388Z,5.32
2018-11-20T15:14:05.828Z,5.20
2018-11-20T15:16:52.762Z,5.07
2018-11-20T15:19:46.180Z,5.00
2018-11-20T15:22:26.296Z,4.91
2018-11-20T15:25:12.032Z,4.76
2018-11-20T15:28:02.078Z,4.65
2018-11-20T15:30:39.420Z,4.56
2018-11-20T15:33:25.093Z,4.45
2018-11-20T15:36:18.283Z,4.43
2018-11-20T15:39:14.207Z,4.44
2018-11-20T15:42:06.722Z,4.39
2018-11-20T15:44:39.009Z,4.27
2018-11-20T15:47:18.872Z,4.26
2018-11-20T15:50:04.871Z,4.21
2018-11-20T15:52:55.950Z,4.20
2018-11-20T15:55:44.022Z,4.14
2018-11-20T15:58:30.308Z,4.22
2018-11-20T16:01:25.930Z,4.27
2018-11-20T16:04:12.283Z,4.32
2018-11-20T16:07:04.392Z,4.12
2018-11-20T16:09:50.190Z,3.98
2018-11-20T16:12:46.808Z,3.94
2018-11-20T16:15:32.477Z,3.85
2018-11-20T16:18:18.826Z,3.83
2018-11-20T16:21:06.172Z,3.78
2018-11-20T16:24:02.259Z,3.76
2018-11-20T16:26:52.730Z,3.64
2018-11-20T16:29:38.905Z,3.70
2018-11-20T16:32:22.359Z,3.65
2018-11-20T16:35:08.341Z,3.75
2018-11-20T16:37:50.089Z,3.64
2018-11-20T16:40:37.344Z,3.64
2018-11-20T16:43:24.642Z,3.65
2018-11-20T16:46:11.933Z,3.74
2018-11-20T16:49:06.772Z,3.69
2018-11-20T16:52:00.043Z,3.37
2018-11-20T16:55:05.885Z,3.36
2018-11-20T16:57:56.341Z,3.41
2018-11-20T17:00:59.057Z,3.47
2018-11-20T17:03:47.007Z,3.59
2018-11-20T17:06:33.034Z,3.64
2018-11-20T17:09:38.190Z,3.60
2018-11-20T17:12:32.078Z,3.55
2018-11-20T17:15:34.736Z,3.51
2018-11-20T17:18:24.711Z,3.45
2018-11-20T17:21:20.836Z,3.52
2018-11-20T17:24:08.403Z,3.66
2018-11-20T17:26:55.021Z,3.75
2018-11-20T17:29:47.193Z,3.53
2018-11-20T17:32:37.348Z,3.36
2018-11-20T17:35:37.041Z,3.46
2018-11-20T17:38:30.106Z,3.48
2018-11-20T17:41:10.012Z,3.53
2018-11-20T17:44:03.581Z,3.48
2018-11-20T17:46:48.465Z,3.37
2018-11-20T17:49:34.937Z,3.22
2018-11-20T17:52:20.118Z,3.17
2018-11-20T17:55:07.367Z,2.97
2018-11-20T17:57:57.928Z,2.87
2018-11-20T18:00:54.146Z,2.78
2018-11-20T18:03:42.555Z,2.80
2018-11-20T18:06:36.990Z,2.88
2018-11-20T18:09:38.947Z,2.80
2018-11-20T18:12:35.219Z,2.72
2018-11-20T18:15:29.358Z,2.84
2018-11-20T18:18:06.892Z,2.68
2018-11-20T18:21:03.674Z,2.71
2018-11-20T18:23:50.131Z,2.81
2018-11-20T18:26:44.142Z,2.88
2018-11-20T18:29:24.158Z,2.92
2018-11-20T18:32:12.120Z,2.90
2018-11-20T18:34:58.123Z,2.84
2018-11-20T18:37:52.945Z,2.73
2018-11-20T18:40:39.177Z,2.67
2018-11-20T18:43:25.584Z,2.64
2018-11-20T18:46:11.927Z,2.60
2018-11-20T18:49:15.007Z,2.56
2018-11-20T18:52:05.322Z,2.52
2018-11-20T18:54:51.465Z,2.46
2018-11-20T18:57:32.708Z,2.54
2018-11-20T19:00:32.439Z,2.56
2018-11-20T19:03:16.006Z,2.66
2018-11-20T19:06:21.462Z,2.68
2018-11-20T19:09:07.847Z,2.60
2018-11-20T19:12:17.593Z,2.61
2018-11-20T19:15:03.322Z,2.56
2018-11-20T19:17:49.217Z,2.58
2018-11-20T19:20:54.898Z,2.62
2018-11-20T19:23:41.224Z,2.60
2018-11-20T19:26:34.398Z,2.63
2018-11-20T19:29:29.005Z,2.53
2018-11-20T19:32:15.228Z,2.24
2018-11-20T19:35:05.082Z,2.15
2018-11-20T19:37:46.563Z,2.07
2018-11-20T19:40:43.225Z,2.08
2018-11-20T19:43:24.591Z,2.10
2018-11-20T19:46:10.308Z,2.15
2018-11-20T19:49:02.768Z,2.12
2018-11-20T19:52:04.690Z,2.09
2018-11-20T19:54:50.936Z,2.09
2018-11-20T19:57:30.061Z,2.04
2018-11-20T20:00:26.148Z,2.02
2018-11-20T20:03:28.698Z,2.02
2018-11-20T20:06:27.068Z,1.85
2018-11-20T20:09:23.515Z,1.85
2018-11-20T20:12:29.166Z,1.79
2018-11-20T20:15:08.538Z,1.85
2018-11-20T20:18:08.128Z,1.85
2018-11-20T20:21:10.943Z,1.94
2018-11-20T20:23:55.909Z,1.84
2018-11-20T20:26:55.240Z,1.84
2018-11-20T20:29:54.787Z,1.92
2018-11-20T20:32:42.035Z,1.92
2018-11-20T20:35:47.319Z,1.87
2018-11-20T20:38:37.311Z,1.87
2018-11-20T20:41:23.003Z,1.79
2018-11-20T20:44:14.158Z,1.64
2018-11-20T20:47:08.710Z,1.64
2018-11-20T20:49:55.160Z,1.59
2018-11-20T20:52:47.460Z,1.69
2018-11-20T20:55:33.500Z,1.58
2018-11-20T20:58:20.895Z,1.58
2018-11-20T21:01:18.829Z,1.54
2018-11-20T21:04:25.356Z,1.43
2018-11-20T21:07:07.407Z,1.47
2018-11-20T21:10:07.439Z,1.49
2018-11-20T21:12:40.911Z,1.40
2018-11-20T21:15:40.094Z,1.40
2018-11-20T21:18:26.539Z,1.48
2018-11-20T21:21:07.296Z,1.48
2018-11-20T21:23:53.299Z,1.49
2018-11-20T21:26:43.630Z,1.56
2018-11-20T21:29:37.244Z,1.55
2018-11-20T21:32:24.522Z,1.42
2018-11-20T21:35:00.551Z,1.35
2018-11-20T21:37:56.474Z,1.35
2018-11-20T21:40:42.990Z,1.31
2018-11-20T21:43:23.144Z,1.31
2018-11-20T21:46:16.556Z,1.31
2018-11-20T21:49:09.387Z,1.21
2018-11-20T21:51:59.372Z,1.17
2018-11-20T21:54:50.210Z,1.17
2018-11-20T21:57:40.429Z,0.96
2018-11-20T22:00:38.971Z,0.96
2018-11-20T22:03:41.548Z,0.98
2018-11-20T22:07:15.819Z,1.11
2018-11-20T22:10:13.749Z,0.99
2018-11-20T22:13:01.641Z,1.03
2018-11-20T22:15:46.631Z,0.98
2018-11-20T22:18:45.441Z,0.98
2018-11-20T22:21:30.534Z,0.92
2018-11-20T22:24:15.865Z,0.92
2018-11-20T22:27:01.980Z,0.99
2018-11-20T22:29:39.544Z,0.99
2018-11-20T22:32:24.847Z,0.90
2018-11-20T22:35:14.789Z,0.83
2018-11-20T22:37:56.570Z,0.92
2018-11-20T22:40:42.430Z,0.92
2018-11-20T22:43:24.832Z,0.87
2018-11-20T22:46:10.111Z,0.89
2018-11-20T22:49:04.852Z,0.78
2018-11-20T22:51:50.735Z,0.71
2018-11-20T22:54:37.193Z,0.64
2018-11-20T22:57:22.206Z,0.80
2018-11-20T23:00:14.550Z,0.82
2018-11-20T23:02:52.803Z,0.82
2018-11-20T23:05:36.638Z,0.84
2018-11-20T23:08:03.894Z,0.90
2018-11-20T23:10:31.034Z,0.90
2018-11-20T23:12:58.527Z,0.80
2018-11-20T23:15:26.165Z,0.66
2018-11-20T23:17:53.248Z,0.62
2018-11-20T23:20:20.417Z,0.57
2018-11-20T23:22:47.881Z,0.41
2018-11-20T23:25:15.388Z,0.25
2018-11-20T23:27:43.339Z,0.23
2018-11-20T23:30:11.932Z,0.21
2018-11-20T23:32:39.389Z,0.20
2018-11-20T23:35:08.082Z,0.26
2018-11-20T23:37:35.199Z,0.23
2018-11-20T23:40:02.122Z,0.25
2018-11-20T23:42:29.306Z,0.20
2018-11-20T23:45:06.631Z,0.24
2018-11-20T23:47:34.614Z,0.06
2018-11-20T23:50:01.765Z,-0.03
2018-11-20T23:52:28.640Z,0.04
2018-11-20T23:54:56.004Z,0.11
2018-11-20T23:57:22.827Z,0.12
2018-11-20T23:59:49.766Z,0.09
